sensor_id;sensor_type;location;lat;lon;timestamp;temperature;humidity
16321;DHT22;8269;50.990;4.494;2022-12-29T10:02:45;9.60;99.90
16321;DHT22;8269;50.990;4.494;2022-12-29T10:08:10;9.60;99.90
16321;DHT22;8269;50.990;4.494;2022-12-29T10:10:49;9.70;99.90
16321;DHT22;8269;50.990;4.494;2022-12-29T10:13:50;9.80;99.90
16321;DHT22;8269;50.990;4.494;2022-12-29T10:19:07;10.10;99.90
16321;DHT22;8269;50.990;4.494;2022-12-29T10:22:06;10.20;99.90
16321;DHT22;8269;50.990;4.494;2022-12-29T10:24:38;10.40;99.90
16321;DHT22;8269;50.990;4.494;2022-12-29T10:27:08;10.40;99.90
16321;DHT22;8269;50.990;4.494;2022-12-29T10:29:39;10.40;99.90
16321;DHT22;8269;50.990;4.494;2022-12-29T10:32:13;10.30;99.90
16321;DHT22;8269;50.990;4.494;2022-12-29T10:34:47;10.50;99.90
16321;DHT22;8269;50.990;4.494;2022-12-29T10:37:29;10.50;99.90
16321;DHT22;8269;50.990;4.494;2022-12-29T10:42:26;10.60;99.90
16321;DHT22;8269;50.990;4.494;2022-12-29T10:44:54;10.50;99.90
16321;DHT22;8269;50.990;4.494;2022-12-29T10:49:48;10.70;99.90
16321;DHT22;8269;50.990;4.494;2022-12-29T10:52:16;10.60;99.90
16321;DHT22;8269;50.990;4.494;2022-12-29T10:54:47;10.70;99.90
16321;DHT22;8269;50.990;4.494;2022-12-29T10:57:36;10.80;99.90
16321;DHT22;8269;50.990;4.494;2022-12-29T11:00:23;10.80;99.90
16321;DHT22;8269;50.990;4.494;2022-12-29T11:08:22;10.70;99.90
16321;DHT22;8269;50.990;4.494;2022-12-29T11:11:08;10.70;99.90
16321;DHT22;8269;50.990;4.494;2022-12-29T11:13:46;10.70;99.90
16321;DHT22;8269;50.990;4.494;2022-12-29T11:16:15;10.60;99.90
16321;DHT22;8269;50.990;4.494;2022-12-29T11:18:52;10.60;99.90
16321;DHT22;8269;50.990;4.494;2022-12-29T11:21:28;10.70;99.90
16321;DHT22;8269;50.990;4.494;2022-12-29T11:24:04;10.70;99.90
16321;DHT22;8269;50.990;4.494;2022-12-29T11:26:31;10.70;99.90
16321;DHT22;8269;50.990;4.494;2022-12-29T11:31:40;10.60;99.90
16321;DHT22;8269;50.990;4.494;2022-12-29T11:34:07;10.60;99.90
16321;DHT22;8269;50.990;4.494;2022-12-29T11:36:34;10.60;99.90
16321;DHT22;8269;50.990;4.494;2022-12-29T11:39:00;10.40;99.90
16321;DHT22;8269;50.990;4.494;2022-12-29T11:41:29;10.30;99.90
16321;DHT22;8269;50.990;4.494;2022-12-29T11:43:58;10.30;99.90
16321;DHT22;8269;50.990;4.494;2022-12-29T11:46:29;10.30;99.90
16321;DHT22;8269;50.990;4.494;2022-12-29T11:48:57;10.20;99.90
16321;DHT22;8269;50.990;4.494;2022-12-29T11:51:30;10.10;99.90
16321;DHT22;8269;50.990;4.494;2022-12-29T11:54:02;10.10;99.90
16321;DHT22;8269;50.990;4.494;2022-12-29T12:02:08;10.10;99.90
16321;DHT22;8269;50.990;4.494;2022-12-29T12:04:37;10.10;99.90
16321;DHT22;8269;50.990;4.494;2022-12-29T12:07:17;10.10;99.90
16321;DHT22;8269;50.990;4.494;2022-12-29T12:09:51;10.10;99.90
16321;DHT22;8269;50.990;4.494;2022-12-29T12:15:28;10.00;99.90
16321;DHT22;8269;50.990;4.494;2022-12-29T12:18:10;10.00;99.90
16321;DHT22;8269;50.990;4.494;2022-12-29T12:20:47;10.10;99.90
16321;DHT22;8269;50.990;4.494;2022-12-29T12:26:00;10.10;99.90
16321;DHT22;8269;50.990;4.494;2022-12-29T12:28:37;10.00;99.90
16321;DHT22;8269;50.990;4.494;2022-12-29T12:31:15;10.20;99.90
16321;DHT22;8269;50.990;4.494;2022-12-29T12:33:46;10.00;99.90
16321;DHT22;8269;50.990;4.494;2022-12-29T12:36:25;9.00;99.90
16321;DHT22;8269;50.990;4.494;2022-12-29T12:39:06;10.10;99.90
16321;DHT22;8269;50.990;4.494;2022-12-29T12:47:38;9.90;99.90
16321;DHT22;8269;50.990;4.494;2022-12-29T12:50:18;9.90;99.90
16321;DHT22;8269;50.990;4.494;2022-12-29T12:55:44;10.00;99.90
16321;DHT22;8269;50.990;4.494;2022-12-29T13:01:15;10.00;99.90
16321;DHT22;8269;50.990;4.494;2022-12-29T13:23:05;10.20;99.90
16321;DHT22;8269;50.990;4.494;2022-12-29T13:26:17;10.20;99.90
16321;DHT22;8269;50.990;4.494;2022-12-29T13:28:56;10.20;99.90
16321;DHT22;8269;50.990;4.494;2022-12-29T13:39:45;10.30;99.90
16321;DHT22;8269;50.990;4.494;2022-12-29T13:49:45;10.30;99.90
16321;DHT22;8269;50.990;4.494;2022-12-29T13:54:55;10.40;99.90
16321;DHT22;8269;50.990;4.494;2022-12-29T13:57:50;10.40;99.90
16321;DHT22;8269;50.990;4.494;2022-12-29T14:00:22;10.30;99.90
16321;DHT22;8269;50.990;4.494;2022-12-29T14:03:27;10.30;99.90
16321;DHT22;8269;50.990;4.494;2022-12-29T14:08:40;10.30;99.90
16321;DHT22;8269;50.990;4.494;2022-12-29T14:11:11;10.30;99.90
16321;DHT22;8269;50.990;4.494;2022-12-29T14:13:43;10.20;99.90
16321;DHT22;8269;50.990;4.494;2022-12-29T14:16:30;10.20;99.90
16321;DHT22;8269;50.990;4.494;2022-12-29T14:21:30;10.00;99.90
16321;DHT22;8269;50.990;4.494;2022-12-29T14:24:35;10.00;99.90
16321;DHT22;8269;50.990;4.494;2022-12-29T14:37:34;8.70;99.90
16321;DHT22;8269;50.990;4.494;2022-12-29T14:42:32;8.20;99.90
16321;DHT22;8269;50.990;4.494;2022-12-29T14:53:04;8.10;99.90
16321;DHT22;8269;50.990;4.494;2022-12-29T14:55:41;8.30;99.90
16321;DHT22;8269;50.990;4.494;2022-12-29T14:58:32;8.00;99.90
16321;DHT22;8269;50.990;4.494;2022-12-29T15:01:01;8.00;99.90
16321;DHT22;8269;50.990;4.494;2022-12-29T15:03:32;8.00;99.90
16321;DHT22;8269;50.990;4.494;2022-12-29T15:06:07;8.10;99.90
16321;DHT22;8269;50.990;4.494;2022-12-29T15:11:21;8.10;99.90
16321;DHT22;8269;50.990;4.494;2022-12-29T15:13:47;7.90;99.90
16321;DHT22;8269;50.990;4.494;2022-12-29T15:16:29;8.00;99.90
16321;DHT22;8269;50.990;4.494;2022-12-29T15:21:42;7.70;99.90
16321;DHT22;8269;50.990;4.494;2022-12-29T15:24:10;7.70;99.90
16321;DHT22;8269;50.990;4.494;2022-12-29T15:26:38;7.60;99.90
16321;DHT22;8269;50.990;4.494;2022-12-29T15:29:04;7.60;99.90
16321;DHT22;8269;50.990;4.494;2022-12-29T15:31:30;7.50;99.90
16321;DHT22;8269;50.990;4.494;2022-12-29T15:34:09;7.50;99.90
16321;DHT22;8269;50.990;4.494;2022-12-29T15:36:40;7.30;99.90
16321;DHT22;8269;50.990;4.494;2022-12-29T15:39:30;7.30;99.90
16321;DHT22;8269;50.990;4.494;2022-12-29T15:42:02;7.30;99.90
16321;DHT22;8269;50.990;4.494;2022-12-29T15:44:34;7.30;99.90
16321;DHT22;8269;50.990;4.494;2022-12-29T15:47:21;7.30;99.90
16321;DHT22;8269;50.990;4.494;2022-12-29T15:53:03;7.30;99.90
16321;DHT22;8269;50.990;4.494;2022-12-29T15:55:37;7.40;99.90
16321;DHT22;8269;50.990;4.494;2022-12-29T15:58:05;7.40;99.90
16321;DHT22;8269;50.990;4.494;2022-12-29T16:00:53;7.40;99.90
16321;DHT22;8269;50.990;4.494;2022-12-29T16:03:20;7.50;99.90
16321;DHT22;8269;50.990;4.494;2022-12-29T16:05:53;7.50;99.90
16321;DHT22;8269;50.990;4.494;2022-12-29T16:08:35;7.50;99.90
16321;DHT22;8269;50.990;4.494;2022-12-29T16:11:27;7.50;99.90
16321;DHT22;8269;50.990;4.494;2022-12-29T16:13:53;7.50;99.90
16321;DHT22;8269;50.990;4.494;2022-12-29T16:16:22;7.50;99.90
16321;DHT22;8269;50.990;4.494;2022-12-29T16:18:51;7.50;99.90
16321;DHT22;8269;50.990;4.494;2022-12-29T16:21:31;7.40;99.90
16321;DHT22;8269;50.990;4.494;2022-12-29T16:24:01;7.40;99.90
16321;DHT22;8269;50.990;4.494;2022-12-29T16:26:27;7.40;99.90
16321;DHT22;8269;50.990;4.494;2022-12-29T16:28:59;7.40;99.90
16321;DHT22;8269;50.990;4.494;2022-12-29T16:33:58;7.50;99.90
16321;DHT22;8269;50.990;4.494;2022-12-29T16:36:51;7.50;99.90
16321;DHT22;8269;50.990;4.494;2022-12-29T16:39:38;7.60;99.90
16321;DHT22;8269;50.990;4.494;2022-12-29T16:50:31;7.50;99.90
16321;DHT22;8269;50.990;4.494;2022-12-29T16:52:58;7.40;99.90
16321;DHT22;8269;50.990;4.494;2022-12-29T16:55:24;7.40;99.90
16321;DHT22;8269;50.990;4.494;2022-12-29T16:57:53;7.40;99.90
16321;DHT22;8269;50.990;4.494;2022-12-29T17:00:24;7.30;99.90
16321;DHT22;8269;50.990;4.494;2022-12-29T17:02:54;7.30;99.90
16321;DHT22;8269;50.990;4.494;2022-12-29T17:05:21;7.30;99.90
16321;DHT22;8269;50.990;4.494;2022-12-29T17:07:48;7.30;99.90
16321;DHT22;8269;50.990;4.494;2022-12-29T17:10:18;7.30;99.90
16321;DHT22;8269;50.990;4.494;2022-12-29T17:12:47;7.30;99.90
16321;DHT22;8269;50.990;4.494;2022-12-29T17:15:26;7.40;99.90
16321;DHT22;8269;50.990;4.494;2022-12-29T17:17:59;7.40;99.90
16321;DHT22;8269;50.990;4.494;2022-12-29T17:20:27;7.40;99.90
16321;DHT22;8269;50.990;4.494;2022-12-29T17:22:54;7.50;99.90
16321;DHT22;8269;50.990;4.494;2022-12-29T17:25:24;7.50;99.90
16321;DHT22;8269;50.990;4.494;2022-12-29T17:28:01;7.50;99.90
16321;DHT22;8269;50.990;4.494;2022-12-29T17:30:29;7.50;99.90
16321;DHT22;8269;50.990;4.494;2022-12-29T17:33:03;7.50;99.90
16321;DHT22;8269;50.990;4.494;2022-12-29T17:35:29;7.60;99.90
16321;DHT22;8269;50.990;4.494;2022-12-29T17:40:27;7.60;99.90
16321;DHT22;8269;50.990;4.494;2022-12-29T17:42:54;7.60;99.90
16321;DHT22;8269;50.990;4.494;2022-12-29T17:45:24;7.60;99.90
16321;DHT22;8269;50.990;4.494;2022-12-29T17:47:50;7.60;99.90
16321;DHT22;8269;50.990;4.494;2022-12-29T17:50:19;7.50;99.90
16321;DHT22;8269;50.990;4.494;2022-12-29T17:53:14;7.50;99.90
16321;DHT22;8269;50.990;4.494;2022-12-29T17:55:41;7.50;99.90
16321;DHT22;8269;50.990;4.494;2022-12-29T17:58:19;7.50;99.90
16321;DHT22;8269;50.990;4.494;2022-12-29T18:00:47;7.60;99.90
16321;DHT22;8269;50.990;4.494;2022-12-29T18:03:15;7.60;99.90
16321;DHT22;8269;50.990;4.494;2022-12-29T18:05:42;7.60;99.90
16321;DHT22;8269;50.990;4.494;2022-12-29T18:08:09;7.50;99.90
16321;DHT22;8269;50.990;4.494;2022-12-29T18:10:37;7.60;99.90
16321;DHT22;8269;50.990;4.494;2022-12-29T18:13:03;7.60;99.90
16321;DHT22;8269;50.990;4.494;2022-12-29T18:15:31;7.50;99.90
16321;DHT22;8269;50.990;4.494;2022-12-29T18:18:16;7.50;99.90
16321;DHT22;8269;50.990;4.494;2022-12-29T18:20:43;7.60;99.90
16321;DHT22;8269;50.990;4.494;2022-12-29T18:23:26;7.60;99.90
16321;DHT22;8269;50.990;4.494;2022-12-29T18:25:59;7.50;99.90
16321;DHT22;8269;50.990;4.494;2022-12-29T18:28:26;7.50;99.90
16321;DHT22;8269;50.990;4.494;2022-12-29T18:30:53;7.50;99.90
16321;DHT22;8269;50.990;4.494;2022-12-29T18:33:20;7.50;99.90
16321;DHT22;8269;50.990;4.494;2022-12-29T18:36:01;7.40;99.90
16321;DHT22;8269;50.990;4.494;2022-12-29T18:38:28;7.40;99.90
16321;DHT22;8269;50.990;4.494;2022-12-29T18:40:54;7.50;99.90
16321;DHT22;8269;50.990;4.494;2022-12-29T18:43:20;7.50;99.90
16321;DHT22;8269;50.990;4.494;2022-12-29T18:45:47;7.50;99.90
16321;DHT22;8269;50.990;4.494;2022-12-29T18:48:13;7.50;99.90
16321;DHT22;8269;50.990;4.494;2022-12-29T18:50:39;7.50;99.90
16321;DHT22;8269;50.990;4.494;2022-12-29T18:53:05;7.60;99.90
16321;DHT22;8269;50.990;4.494;2022-12-29T18:55:31;7.50;99.90
16321;DHT22;8269;50.990;4.494;2022-12-29T18:57:57;7.50;99.90
16321;DHT22;8269;50.990;4.494;2022-12-29T19:00:23;7.50;99.90
16321;DHT22;8269;50.990;4.494;2022-12-29T19:02:50;7.50;99.90
16321;DHT22;8269;50.990;4.494;2022-12-29T19:05:24;7.50;99.90
16321;DHT22;8269;50.990;4.494;2022-12-29T19:07:50;7.50;99.90
16321;DHT22;8269;50.990;4.494;2022-12-29T19:10:17;7.50;99.90
16321;DHT22;8269;50.990;4.494;2022-12-29T19:12:43;7.50;99.90
16321;DHT22;8269;50.990;4.494;2022-12-29T19:15:30;7.60;99.90
16321;DHT22;8269;50.990;4.494;2022-12-29T19:17:59;7.50;99.90
16321;DHT22;8269;50.990;4.494;2022-12-29T19:20:32;7.40;99.90
16321;DHT22;8269;50.990;4.494;2022-12-29T19:23:00;7.40;99.90
16321;DHT22;8269;50.990;4.494;2022-12-29T19:25:27;7.30;99.90
16321;DHT22;8269;50.990;4.494;2022-12-29T19:27:53;7.30;99.90
16321;DHT22;8269;50.990;4.494;2022-12-29T19:30:19;7.30;99.90
16321;DHT22;8269;50.990;4.494;2022-12-29T19:32:53;7.30;99.90
16321;DHT22;8269;50.990;4.494;2022-12-29T19:35:20;7.20;99.90
16321;DHT22;8269;50.990;4.494;2022-12-29T19:37:46;7.30;99.90
16321;DHT22;8269;50.990;4.494;2022-12-29T19:40:18;7.20;99.90
16321;DHT22;8269;50.990;4.494;2022-12-29T19:42:45;7.20;99.90
16321;DHT22;8269;50.990;4.494;2022-12-29T19:45:11;7.20;99.90
16321;DHT22;8269;50.990;4.494;2022-12-29T19:47:37;7.20;99.90
16321;DHT22;8269;50.990;4.494;2022-12-29T19:50:04;7.20;99.90
16321;DHT22;8269;50.990;4.494;2022-12-29T19:52:30;7.20;99.90
16321;DHT22;8269;50.990;4.494;2022-12-29T19:54:57;7.30;99.90
16321;DHT22;8269;50.990;4.494;2022-12-29T19:57:23;7.30;99.90
16321;DHT22;8269;50.990;4.494;2022-12-29T19:59:49;7.30;99.90
16321;DHT22;8269;50.990;4.494;2022-12-29T20:02:26;7.30;99.90
16321;DHT22;8269;50.990;4.494;2022-12-29T20:04:52;7.30;99.90
16321;DHT22;8269;50.990;4.494;2022-12-29T20:07:19;7.30;99.90
16321;DHT22;8269;50.990;4.494;2022-12-29T20:09:45;7.40;99.90
16321;DHT22;8269;50.990;4.494;2022-12-29T20:12:11;7.40;99.90
16321;DHT22;8269;50.990;4.494;2022-12-29T20:14:38;7.40;99.90
16321;DHT22;8269;50.990;4.494;2022-12-29T20:17:04;7.40;99.90
16321;DHT22;8269;50.990;4.494;2022-12-29T20:19:32;7.20;99.90
16321;DHT22;8269;50.990;4.494;2022-12-29T20:21:58;7.30;99.90
16321;DHT22;8269;50.990;4.494;2022-12-29T20:24:24;7.20;99.90
16321;DHT22;8269;50.990;4.494;2022-12-29T20:26:49;7.50;99.90
16321;DHT22;8269;50.990;4.494;2022-12-29T20:29:17;7.30;99.90
16321;DHT22;8269;50.990;4.494;2022-12-29T20:31:43;7.30;99.90
16321;DHT22;8269;50.990;4.494;2022-12-29T20:34:09;7.50;99.90
16321;DHT22;8269;50.990;4.494;2022-12-29T20:36:40;7.40;99.90
16321;DHT22;8269;50.990;4.494;2022-12-29T20:39:10;7.30;99.90
16321;DHT22;8269;50.990;4.494;2022-12-29T20:41:36;7.40;99.90
16321;DHT22;8269;50.990;4.494;2022-12-29T20:44:01;7.30;99.90
16321;DHT22;8269;50.990;4.494;2022-12-29T20:46:29;7.30;99.90
16321;DHT22;8269;50.990;4.494;2022-12-29T20:48:55;7.30;99.90
16321;DHT22;8269;50.990;4.494;2022-12-29T20:51:20;7.30;99.90
16321;DHT22;8269;50.990;4.494;2022-12-29T20:53:47;7.30;99.90
16321;DHT22;8269;50.990;4.494;2022-12-29T20:56:21;7.20;99.90
16321;DHT22;8269;50.990;4.494;2022-12-29T20:58:48;7.30;99.90
16321;DHT22;8269;50.990;4.494;2022-12-29T21:01:16;7.30;99.90
16321;DHT22;8269;50.990;4.494;2022-12-29T21:03:42;7.30;99.90
16321;DHT22;8269;50.990;4.494;2022-12-29T21:06:08;7.20;99.90
16321;DHT22;8269;50.990;4.494;2022-12-29T21:08:34;7.30;99.90
16321;DHT22;8269;50.990;4.494;2022-12-29T21:11:00;7.20;99.90
16321;DHT22;8269;50.990;4.494;2022-12-29T21:13:26;7.20;99.90
16321;DHT22;8269;50.990;4.494;2022-12-29T21:15:57;7.20;99.90
16321;DHT22;8269;50.990;4.494;2022-12-29T21:18:24;7.20;99.90
16321;DHT22;8269;50.990;4.494;2022-12-29T21:21:05;7.20;99.90
16321;DHT22;8269;50.990;4.494;2022-12-29T21:23:36;7.10;99.90
16321;DHT22;8269;50.990;4.494;2022-12-29T21:26:06;7.20;99.90
16321;DHT22;8269;50.990;4.494;2022-12-29T21:28:33;7.10;99.90
16321;DHT22;8269;50.990;4.494;2022-12-29T21:31:09;7.10;99.90
16321;DHT22;8269;50.990;4.494;2022-12-29T21:33:34;7.10;99.90
16321;DHT22;8269;50.990;4.494;2022-12-29T21:36:04;7.10;99.90
16321;DHT22;8269;50.990;4.494;2022-12-29T21:38:30;7.10;99.90
16321;DHT22;8269;50.990;4.494;2022-12-29T21:41:02;7.10;99.90
16321;DHT22;8269;50.990;4.494;2022-12-29T21:43:28;7.10;99.90
16321;DHT22;8269;50.990;4.494;2022-12-29T21:45:53;7.00;99.90
16321;DHT22;8269;50.990;4.494;2022-12-29T21:48:19;7.00;99.90
16321;DHT22;8269;50.990;4.494;2022-12-29T21:50:56;7.00;99.90
16321;DHT22;8269;50.990;4.494;2022-12-29T21:53:42;6.90;99.90
16321;DHT22;8269;50.990;4.494;2022-12-29T21:56:17;6.90;99.90
16321;DHT22;8269;50.990;4.494;2022-12-29T21:58:48;6.90;99.90
16321;DHT22;8269;50.990;4.494;2022-12-29T22:01:36;6.80;99.90
16321;DHT22;8269;50.990;4.494;2022-12-29T22:04:23;6.90;99.90
16321;DHT22;8269;50.990;4.494;2022-12-29T22:07:10;6.90;99.90
16321;DHT22;8269;50.990;4.494;2022-12-29T22:09:55;6.90;99.90
16321;DHT22;8269;50.990;4.494;2022-12-29T22:12:40;6.90;99.90
16321;DHT22;8269;50.990;4.494;2022-12-29T22:15:26;6.90;99.90
16321;DHT22;8269;50.990;4.494;2022-12-29T22:17:52;6.90;99.90
16321;DHT22;8269;50.990;4.494;2022-12-29T22:20:21;6.90;99.90
16321;DHT22;8269;50.990;4.494;2022-12-29T22:22:48;6.80;99.90
16321;DHT22;8269;50.990;4.494;2022-12-29T22:25:14;6.80;99.90
16321;DHT22;8269;50.990;4.494;2022-12-29T22:27:40;6.80;99.90
16321;DHT22;8269;50.990;4.494;2022-12-29T22:30:08;6.80;99.90
16321;DHT22;8269;50.990;4.494;2022-12-29T22:35:13;6.70;99.90
16321;DHT22;8269;50.990;4.494;2022-12-29T22:37:40;6.70;99.90
16321;DHT22;8269;50.990;4.494;2022-12-29T22:40:08;6.70;99.90
16321;DHT22;8269;50.990;4.494;2022-12-29T22:42:36;6.70;99.90
16321;DHT22;8269;50.990;4.494;2022-12-29T22:45:02;6.70;99.90
16321;DHT22;8269;50.990;4.494;2022-12-29T22:47:27;6.70;99.90
16321;DHT22;8269;50.990;4.494;2022-12-29T22:49:53;6.70;99.90
16321;DHT22;8269;50.990;4.494;2022-12-29T22:52:19;6.70;99.90
16321;DHT22;8269;50.990;4.494;2022-12-29T22:54:45;6.70;99.90
16321;DHT22;8269;50.990;4.494;2022-12-29T22:57:12;6.70;99.90
16321;DHT22;8269;50.990;4.494;2022-12-29T22:59:39;6.70;99.90
16321;DHT22;8269;50.990;4.494;2022-12-29T23:02:04;6.70;99.90
16321;DHT22;8269;50.990;4.494;2022-12-29T23:04:30;6.70;99.90
16321;DHT22;8269;50.990;4.494;2022-12-29T23:07:02;6.60;99.90
16321;DHT22;8269;50.990;4.494;2022-12-29T23:09:27;6.60;99.90
16321;DHT22;8269;50.990;4.494;2022-12-29T23:11:53;6.60;99.90
16321;DHT22;8269;50.990;4.494;2022-12-29T23:14:20;6.60;99.90
16321;DHT22;8269;50.990;4.494;2022-12-29T23:16:45;6.60;99.90
16321;DHT22;8269;50.990;4.494;2022-12-29T23:19:12;6.50;99.90
16321;DHT22;8269;50.990;4.494;2022-12-29T23:21:38;6.50;99.90
16321;DHT22;8269;50.990;4.494;2022-12-29T23:24:04;6.50;99.90
16321;DHT22;8269;50.990;4.494;2022-12-29T23:26:35;6.50;99.90
16321;DHT22;8269;50.990;4.494;2022-12-29T23:29:07;6.50;99.90
16321;DHT22;8269;50.990;4.494;2022-12-29T23:31:33;6.50;99.90
16321;DHT22;8269;50.990;4.494;2022-12-29T23:34:00;6.50;99.90
16321;DHT22;8269;50.990;4.494;2022-12-29T23:36:27;6.50;99.90
16321;DHT22;8269;50.990;4.494;2022-12-29T23:38:54;6.40;99.90
16321;DHT22;8269;50.990;4.494;2022-12-29T23:41:20;6.40;99.90
16321;DHT22;8269;50.990;4.494;2022-12-29T23:43:46;6.30;99.90
16321;DHT22;8269;50.990;4.494;2022-12-29T23:46:18;6.30;99.90
16321;DHT22;8269;50.990;4.494;2022-12-29T23:48:44;6.30;99.90
16321;DHT22;8269;50.990;4.494;2022-12-29T23:51:21;6.20;99.90
16321;DHT22;8269;50.990;4.494;2022-12-29T23:53:47;6.20;99.90
16321;DHT22;8269;50.990;4.494;2022-12-29T23:56:18;6.30;99.90
16321;DHT22;8269;50.990;4.494;2022-12-29T23:58:49;6.30;99.90
